My Meet Scores
Destiny Carter, Naperville Gymnastics Club - MyMeetScores.com
Top100 | Top Teams | Upcoming Meets | Completed Meets | Latest | Add Scores | Help| Support | Bookmark and Share

Destiny Carter, Naperville Gymnastics Club
Personal Bests
LevelVault BarsBeamFloorAA
49.3008.750 9.3759.55036.450
59.1758.850 9.5259.35036.675
69.1008.800 9.0509.20035.675
79.6259.425 9.3009.22537.075
89.2009.400 9.3759.30036.975
99.4757.925 8.4508.75034.150
Meet Scores
Date Meet Team Session Level Division Vault Bars Beam Floor AA
2017-02-24 Kinetic Classic Naperville Gymnastics Club 3 9 All Ages 0.000 39T 0.000 39T 8.075 31 0.000 39T 8.075 39
2017-01-07 2017 Flip'r Invitational Naperville Gymnastics Club 9 Lvl 9: Sr 9.475 1 7.925 2 8.175 2 7.925 5 33.500 2
2016-03-18 2016 Illinois Level 8, 9, 10 State Championships Naperville Gymnastics Club 01 9 9 JrB 0.000 32T 0.000 32T 0.000 32T 0.000 32T 0.000 32
2016-02-05 World Class Gateway Challenge Naperville Gymnastics Club 3A 9 Jr.B 9.050 6T 6.600 9 8.150 9 8.750 6 32.550 9
2016-01-30 2016 Flip'R Invitational Naperville Gymnastics Club 3 9 8-13 9.350 2 7.800 5 8.450 1 8.550 3 34.150 2
2016-01-15 2016 Bravo Classic Naperville Gymnastics Club 4B 9 8-13yrs 0.000 17 0.000 17 7.500 17 8.350 14 15.850 17
2015-04-24 2015 Region 5 Level 8 Championship Naperville Gymnastics Club 4 8 JR D2 0.000 28T 9.350 5T 0.000 29T 0.000 29T 9.350 28
2015-03-27 2015 Illinois Level 8,9,10 State Championships Naperville Gymnastics Club 6 8 JrD 8.875 9 8.250 19 8.900 19 9.050 18 35.075 16
2015-03-13 2015 Lucky Invite Naperville Gymnastics Club A10 8 Jr.B 0.000 12T 9.400 5 8.900 9 9.150 8 27.450 12
2015-02-13 IGI Chicago Style Gymnastics Meet Naperville Gymnastics Club 431 8 12 & young 8.825 5 9.225 5 9.325 3T 9.050 5 36.425 2
2015-01-30 World Class Gateway Challenge 2015 Naperville Gymnastics Club 2A 8 12 yrs. 9.200 2T 9.100 8 9.375 4 9.300 3 36.975 4
2014-03-28 2014 Illinois Level 6, 7 State Naperville Gymnastics Club 2 7 JrE 9.625 8 9.425 12 9.225 11 8.800 29 37.075 14
2014-02-07 IGI Chicago Style Gymnastics Meet Naperville Gymnastics Club 122 7 11 & Under 9.100 17 8.500 14 8.800 18T 9.050 17 35.450 13
2014-01-31 World Class Gateway Challenge Naperville Gymnastics Club 4A 7 11 years 8.900 14 9.125 4 8.825 13 9.225 9 36.075 10
2013-12-19 2013 Hawaiian Pineapple Classic Naperville Gymnastics Club B10 7 11 9.350 9 8.600 11 8.550 8 9.025 7T 35.525 9T
2013-12-06 Ultimate Wish Classic Naperville Gymnastics Club A 7 Junior17 9.275 12 9.175 5 9.300 1 9.000 14 36.750 4
2013-03-15 2013 Illinois Level 6, 7 State Meet Naperville Gymnastics Club 2 6 Youth.B 8.825 24 7.800 21 8.400 31 9.150 8 34.175 21
2013-03-01 Flip'r Invite 2013 Naperville Gymnastics Club 5 6 Jr 9.050 17 8.800 4 7.700 24 9.200 3 34.750 12
2013-02-08 IGI Chicago Style Gymnastics Meet Naperville Gymnastics Club 511 6 10 & Under 9.000 20 8.650 11 9.050 10T 8.975 9 35.675 9
2012-12-13 2012 Hawaiin Pineapple Classic Naperville Gymnastics Club B9 6 age 10 9.100 5T 7.900 8 8.500 13T 8.850 4 34.350 8
2012-03-09 Flip r Invite Naperville Gymnastics Club 5 9 9.175 5 8.850 15 9.375 2 9.275 6 36.675 4
2012-02-18 BIG Dream Classic 2012 Naperville Gymnastics Club 3A 5 Junior A 8.700 12 8.625 20 9.000 10T 9.050 12 35.375 15
2012-02-10 IGI Chicago Style Gymnastics Naperville Gymnastics Club 631 5 9 & Under 8.500 17 7.800 30 9.425 4 9.350 2 35.075 13
2012-01-18 Bravo Classic Naperville Gymnastics Club 5B 5 9 8.500 16 8.300 12 9.525 2 8.925 8 35.250 8
2012-01-06 2012 St. Jude Invite Naperville Gymnastics Club 2A 5 ChildB 8.850 2 8.350 14 9.225 3 9.000 5 35.425 4
2011-12-15 2011 Hawaiian Pineapple Classic Naperville Gymnastics Club 8B 5 9 8.225 7 6.800 20T 9.275 2T 9.125 3 33.425 6T
2011-11-11 2011 Illinois Judges Cup Naperville Gymnastics Club 6A 5 9 8.200 9 0.000 13 8.650 6 8.450 7 25.300 13
2011-03-18 2011 Illinois Level 4 State Meet American Institute of Gymnastics 8 4 Youth.E 9.300 20 8.650 23 8.750 18 9.550 2 36.250 13
2011-02-26 Midwest Open American Institute of Gymnastics 5B 4 8 9.150 9 8.450 21 9.375 5 9.475 2 36.450 7
2011-02-11 IGI Chicago Style Gymnastics Meet American Institute of Gymnastics 231 4 8 & Under 9.300 7T 8.100 26 8.800 26 9.350 2 35.550 18
2011-01-14 St. Jude Benefit Meet American Institute of Gymnastics 12 4 8 9.075 12 8.750 12 8.450 17 9.475 2 35.750 12
2010-12-03 Make a Wish American Institute of Gymnastics 5 4 Age 8 8.550 21T 8.500 18T 8.600 13T 9.425 1 35.075 12
2010-11-12 North Judges Cup American Institute of Gymnastics 4A 4 8yrs. 8.800 9 7.800 18 8.850 4 8.825 3 34.275 9

www.lazysuits.com